createdAt,value
2023-04-19T00:01:34.027Z,4.20
2023-04-19T00:05:59.536Z,4.10
2023-04-19T00:10:23.759Z,3.88
2023-04-19T00:14:49.276Z,4.38
2023-04-19T00:19:13.153Z,4.03
2023-04-19T00:23:37.032Z,4.07
2023-04-19T00:28:00.938Z,3.90
2023-04-19T00:32:26.321Z,4.55
2023-04-19T00:36:50.309Z,4.47
2023-04-19T00:41:14.402Z,4.45
2023-04-19T00:45:38.559Z,4.40
2023-04-19T00:50:08.268Z,4.80
2023-04-19T00:54:34.371Z,4.40
2023-04-19T00:58:58.709Z,4.00
2023-04-19T01:03:23.212Z,4.97
2023-04-19T01:07:49.881Z,4.50
2023-04-19T01:12:14.143Z,5.15
2023-04-19T01:16:40.204Z,5.00
2023-04-19T01:21:06.927Z,5.23
2023-04-19T01:25:32.567Z,5.07
2023-04-19T01:29:57.017Z,4.88
2023-04-19T01:34:24.269Z,5.40
2023-04-19T01:38:48.676Z,5.20
2023-04-19T01:43:15.620Z,5.32
2023-04-19T01:47:41.190Z,5.63
2023-04-19T01:52:05.880Z,5.30
2023-04-19T01:56:29.688Z,6.07
2023-04-19T02:00:55.264Z,5.20
2023-04-19T02:05:19.457Z,5.30
2023-04-19T02:09:43.299Z,5.20
2023-04-19T02:14:07.347Z,5.28
2023-04-19T02:18:32.771Z,5.40
2023-04-19T02:22:56.980Z,5.65
2023-04-19T02:27:22.402Z,6.03
2023-04-19T02:31:46.583Z,5.53
2023-04-19T02:36:12.274Z,5.90
2023-04-19T02:40:36.755Z,5.50
2023-04-19T02:45:00.663Z,5.85
2023-04-19T02:49:24.878Z,6.10
2023-04-19T02:53:50.406Z,5.70
2023-04-19T02:58:14.549Z,5.60
2023-04-19T03:02:48.598Z,5.77
2023-04-19T03:07:13.168Z,5.57
2023-04-19T03:11:39.485Z,5.82
2023-04-19T03:16:03.816Z,5.37
2023-04-19T03:20:29.275Z,5.80
2023-04-19T03:24:54.190Z,5.93
2023-04-19T03:29:22.099Z,5.43
2023-04-19T03:33:55.069Z,5.23
2023-04-19T03:38:24.726Z,4.82
2023-04-19T03:42:49.383Z,4.78
2023-04-19T03:47:26.183Z,4.53
2023-04-19T03:51:53.697Z,4.32
2023-04-19T03:56:17.671Z,3.90
2023-04-19T04:00:41.851Z,3.90
2023-04-19T04:05:08.580Z,3.90
2023-04-19T04:09:33.990Z,3.60
2023-04-19T04:13:58.739Z,3.90
2023-04-19T04:18:27.158Z,3.40
2023-04-19T04:22:52.887Z,3.90
2023-04-19T04:27:21.418Z,3.30
2023-04-19T04:31:47.641Z,3.63
2023-04-19T04:36:15.488Z,3.00
2023-04-19T04:40:41.622Z,3.13
2023-04-19T04:45:06.055Z,3.00
2023-04-19T04:49:32.649Z,2.95
2023-04-19T04:53:57.398Z,2.90
2023-04-19T04:58:22.960Z,2.88
2023-04-19T05:02:52.880Z,2.60
2023-04-19T05:07:17.782Z,2.40
2023-04-19T05:11:44.602Z,2.50
2023-04-19T05:16:10.516Z,2.17
2023-04-19T05:20:36.644Z,2.30
2023-04-19T05:25:12.084Z,2.35
2023-04-19T05:29:37.206Z,2.50
2023-04-19T05:34:03.438Z,2.20
2023-04-19T05:38:27.502Z,2.22
2023-04-19T05:42:54.232Z,2.28
2023-04-19T05:47:18.949Z,2.03
2023-04-19T05:52:02.242Z,2.47
2023-04-19T05:56:43.716Z,2.33
2023-04-19T06:01:08.129Z,2.33
2023-04-19T06:05:32.398Z,2.35
2023-04-19T06:09:58.270Z,2.30
2023-04-19T06:14:22.461Z,2.20
2023-04-19T06:18:46.667Z,2.20
2023-04-19T06:23:12.998Z,2.20
2023-04-19T06:27:38.451Z,2.55
2023-04-19T06:32:02.548Z,2.40
2023-04-19T06:36:27.169Z,2.58
2023-04-19T06:40:51.132Z,2.40
2023-04-19T06:45:16.588Z,2.70
2023-04-19T06:49:40.584Z,2.30
2023-04-19T06:54:04.784Z,2.33
2023-04-19T06:58:29.211Z,2.23
2023-04-19T07:02:54.755Z,2.35
2023-04-19T07:07:18.975Z,2.60
2023-04-19T07:11:42.999Z,2.25
2023-04-19T07:16:08.182Z,2.47
2023-04-19T07:20:33.832Z,2.30
2023-04-19T07:24:57.955Z,2.28
2023-04-19T07:29:22.441Z,2.00
2023-04-19T07:33:47.035Z,2.00
2023-04-19T07:38:12.600Z,2.25
2023-04-19T07:42:36.859Z,2.27
2023-04-19T07:47:00.990Z,2.60
2023-04-19T07:51:25.257Z,2.55
2023-04-19T07:55:50.800Z,2.55
2023-04-19T08:00:15.385Z,2.30
2023-04-19T08:04:39.926Z,2.13
2023-04-19T08:09:05.903Z,2.30
2023-04-19T08:13:31.550Z,2.20
2023-04-19T08:17:55.637Z,2.10
2023-04-19T08:22:21.931Z,2.15
2023-04-19T08:26:53.521Z,2.30
2023-04-19T08:31:20.170Z,2.40
2023-04-19T08:35:45.715Z,2.05
2023-04-19T08:40:11.326Z,2.90
2023-04-19T08:44:42.287Z,2.43
2023-04-19T08:49:21.256Z,2.50
2023-04-19T08:53:45.745Z,2.30
2023-04-19T08:58:18.910Z,2.20
2023-04-19T09:02:52.445Z,2.05
2023-04-19T09:07:26.187Z,2.03
2023-04-19T09:11:50.508Z,2.50
2023-04-19T09:16:27.363Z,2.53
2023-04-19T09:20:57.240Z,2.65
2023-04-19T09:29:55.610Z,2.37
2023-04-19T09:34:21.713Z,2.45
2023-04-19T09:38:48.995Z,2.38
2023-04-19T09:43:45.253Z,2.70
2023-04-19T09:48:05.900Z,2.47
2023-04-19T09:52:30.232Z,2.53
2023-04-19T09:56:58.415Z,2.90
2023-04-19T10:01:26.948Z,2.70
2023-04-19T10:05:51.518Z,3.10
2023-04-19T10:10:20.877Z,3.20
2023-04-19T10:14:46.840Z,2.37
2023-04-19T10:19:13.935Z,2.67
2023-04-19T10:23:38.911Z,2.58
2023-04-19T10:28:02.923Z,2.37
2023-04-19T10:32:29.348Z,2.60
2023-04-19T10:36:59.256Z,2.40
2023-04-19T10:41:23.802Z,2.80
2023-04-19T10:45:48.146Z,2.50
2023-04-19T10:50:12.414Z,2.58
2023-04-19T10:54:40.588Z,2.70
2023-04-19T10:59:21.909Z,2.70
2023-04-19T11:03:55.411Z,2.90
2023-04-19T11:08:24.568Z,2.72
2023-04-19T11:12:49.947Z,2.97
2023-04-19T11:17:17.989Z,2.70
2023-04-19T11:21:41.946Z,2.90
2023-04-19T11:26:06.433Z,2.90
2023-04-19T11:30:32.351Z,2.80
2023-04-19T11:34:57.645Z,2.90
2023-04-19T11:39:22.403Z,2.72
2023-04-19T11:43:46.928Z,2.83
2023-04-19T11:48:16.532Z,2.60
2023-04-19T11:52:40.551Z,2.85
2023-04-19T11:57:05.914Z,3.50
2023-04-19T12:01:32.446Z,3.22
2023-04-19T12:06:00.216Z,3.00
2023-04-19T12:10:24.537Z,3.27
2023-04-19T12:14:53.795Z,3.08
2023-04-19T12:19:20.652Z,3.30
2023-04-19T12:23:45.985Z,3.63
2023-04-19T12:28:10.200Z,3.10
2023-04-19T12:32:34.320Z,3.05
2023-04-19T12:36:59.586Z,3.38
2023-04-19T12:41:24.735Z,3.47
2023-04-19T12:45:48.765Z,3.67
2023-04-19T12:50:14.382Z,3.42
2023-04-19T12:54:40.023Z,3.17
2023-04-19T12:59:07.144Z,3.30
2023-04-19T13:03:35.616Z,3.22
2023-04-19T13:08:00.272Z,2.75
2023-04-19T13:12:24.436Z,3.30
2023-04-19T13:16:49.734Z,3.00
2023-04-19T13:21:13.733Z,2.90
2023-04-19T13:25:37.705Z,3.17
2023-04-19T13:30:01.865Z,2.35
2023-04-19T13:34:27.457Z,2.58
2023-04-19T13:38:51.583Z,2.60
2023-04-19T13:43:15.601Z,2.60
2023-04-19T13:47:39.639Z,2.70
2023-04-19T13:52:05.487Z,2.53
2023-04-19T13:56:30.153Z,2.73
2023-04-19T14:00:54.682Z,2.97
2023-04-19T14:05:19.011Z,2.80
2023-04-19T14:09:44.790Z,2.70
2023-04-19T14:14:08.812Z,2.80
2023-04-19T14:18:32.913Z,2.70
2023-04-19T14:22:59.182Z,3.40
2023-04-19T14:27:26.334Z,3.03
2023-04-19T14:31:50.236Z,3.08
2023-04-19T14:36:14.395Z,2.90
2023-04-19T14:40:38.501Z,2.80
2023-04-19T14:45:04.473Z,2.95
2023-04-19T14:49:28.450Z,3.63
2023-04-19T14:53:52.567Z,4.17
2023-04-19T14:58:16.704Z,4.50
2023-04-19T15:02:42.469Z,3.83
2023-04-19T15:07:06.429Z,4.00
2023-04-19T15:11:30.637Z,3.28
2023-04-19T15:15:54.626Z,4.20
2023-04-19T15:20:20.144Z,4.00
2023-04-19T15:24:44.456Z,3.40
2023-04-19T15:29:08.608Z,3.80
2023-04-19T15:33:34.168Z,3.85
2023-04-19T15:37:59.464Z,4.00
2023-04-19T15:42:23.459Z,3.92
2023-04-19T15:46:47.497Z,3.70
2023-04-19T15:51:12.939Z,7.03
2023-04-19T15:55:38.558Z,3.90
2023-04-19T16:00:02.668Z,4.10
2023-04-19T16:04:39.237Z,4.03
2023-04-19T16:09:03.269Z,3.73
2023-04-19T16:13:31.270Z,4.18
2023-04-19T16:17:55.383Z,3.25
2023-04-19T16:22:19.680Z,3.40
2023-04-19T16:26:43.590Z,4.20
2023-04-19T16:31:09.666Z,4.10
2023-04-19T16:35:40.420Z,4.37
2023-04-19T16:40:09.936Z,3.58
2023-04-19T16:44:39.436Z,4.53
2023-04-19T16:49:11.776Z,3.65
2023-04-19T16:53:38.407Z,3.07
2023-04-19T16:58:02.318Z,3.03
2023-04-19T17:02:29.995Z,3.85
2023-04-19T17:06:55.988Z,4.50
2023-04-19T17:11:23.060Z,3.85
2023-04-19T17:15:47.376Z,4.32
2023-04-19T17:20:13.530Z,3.97
2023-04-19T17:24:41.542Z,3.80
2023-04-19T17:29:10.657Z,4.28
2023-04-19T17:33:38.032Z,4.00
2023-04-19T17:38:02.186Z,4.10
2023-04-19T17:42:27.853Z,4.40
2023-04-19T17:46:52.787Z,3.60
2023-04-19T17:51:16.760Z,4.10
2023-04-19T17:55:45.407Z,3.88
2023-04-19T18:00:11.941Z,3.83
2023-04-19T18:04:36.518Z,4.00
2023-04-19T18:09:03.488Z,3.55
2023-04-19T18:13:30.884Z,3.85
2023-04-19T18:17:58.921Z,3.55
2023-04-19T18:22:29.295Z,3.83
2023-04-19T18:34:56.192Z,3.50
2023-04-19T18:39:21.534Z,4.35
2023-04-19T18:44:00.727Z,4.40
2023-04-19T18:48:27.489Z,4.30
2023-04-19T18:52:49.126Z,4.50
2023-04-19T18:57:21.839Z,4.25
2023-04-19T19:01:46.423Z,4.83
2023-04-19T19:06:04.308Z,4.82
2023-04-19T19:10:57.192Z,4.68
2023-04-19T19:15:05.263Z,4.63
2023-04-19T19:19:22.884Z,4.57
2023-04-19T19:23:42.753Z,4.93
2023-04-19T19:28:09.753Z,3.90
2023-04-19T19:32:35.448Z,3.70
2023-04-19T19:36:56.001Z,3.20
2023-04-19T19:45:43.904Z,3.53
2023-04-19T19:54:30.294Z,3.63
2023-04-19T19:58:53.991Z,3.50
2023-04-19T20:03:14.093Z,3.10
2023-04-19T20:08:00.455Z,3.25
2023-04-19T20:12:16.493Z,3.17
2023-04-19T20:16:35.417Z,3.10
2023-04-19T20:20:57.929Z,3.30
2023-04-19T20:25:16.701Z,3.20
2023-04-19T20:29:34.917Z,3.13
2023-04-19T20:33:53.036Z,2.90
2023-04-19T20:38:12.883Z,2.92
2023-04-19T20:42:31.831Z,3.40
2023-04-19T20:46:51.154Z,3.70
2023-04-19T20:51:12.782Z,3.40
2023-04-19T20:55:33.725Z,3.50
2023-04-19T20:59:53.398Z,3.40
2023-04-19T21:04:11.625Z,3.55
2023-04-19T21:08:30.022Z,3.75
2023-04-19T21:12:49.101Z,3.77
2023-04-19T21:17:08.677Z,3.90
2023-04-19T21:21:28.481Z,4.20
2023-04-19T21:25:49.968Z,3.97
2023-04-19T21:30:11.860Z,4.05
2023-04-19T21:34:33.246Z,4.13
2023-04-19T21:38:51.144Z,4.00
2023-04-19T21:43:12.353Z,4.30
2023-04-19T21:47:32.231Z,4.78
2023-04-19T21:51:55.125Z,4.60
2023-04-19T21:56:13.126Z,5.07
2023-04-19T22:00:30.808Z,4.53
2023-04-19T22:04:50.349Z,5.15
2023-04-19T22:09:10.753Z,5.00
2023-04-19T22:13:28.520Z,5.20
2023-04-19T22:17:47.395Z,4.63
2023-04-19T22:22:09.043Z,4.85
2023-04-19T22:26:29.410Z,4.77
2023-04-19T22:30:49.907Z,5.10
2023-04-19T22:35:08.077Z,5.22
2023-04-19T22:39:27.137Z,5.20
2023-04-19T22:43:47.101Z,5.10
2023-04-19T22:48:05.551Z,5.43
2023-04-19T22:52:23.027Z,5.07
2023-04-19T22:56:42.904Z,5.10
2023-04-19T23:01:02.463Z,5.60
2023-04-19T23:05:23.747Z,5.05
2023-04-19T23:09:41.131Z,4.83
2023-04-19T23:14:02.002Z,5.45
2023-04-19T23:18:21.382Z,5.80
2023-04-19T23:22:41.606Z,5.80
2023-04-19T23:26:59.420Z,4.88
2023-04-19T23:31:19.291Z,5.80
2023-04-19T23:35:38.582Z,5.40
2023-04-19T23:39:56.561Z,5.93
2023-04-19T23:44:15.166Z,6.38
2023-04-19T23:48:42.751Z,6.18
2023-04-19T23:53:07.350Z,6.40
2023-04-19T23:57:31.401Z,6.70
